Main page
Satellite images 15-day forecastsClimateMarine weather Cyclones Lightning AirportsFAQ Newsletter About
Weather : Europe Africa North America South America Asia Australia-Oceania Others
Languages Contact

Dortmund, Germany

latitude: 51-31N, longitude: 007-37E, elevation: 127 m


METAR: EDLW 280520Z 06004KT 020V100 9000 NSC 02/01 Q1008 RMK ATIS C
TAF: EDLW 271700Z 2718/2818 09006KT 9999 BKN025 TEMPO 2718/2721 RA BECMG 2810/2812 07011KT

Time: 06:25 (05:25 UTC)

Current weather observation

The report was made 5 minutes ago, at 05:20 UTC
Wind 4 kt from the East/Northeast, varying between North/Northeast and East
Temperature 2°C
Humidity 93%
Pressure 1008 hPa
Visibility: 9000 m

Change units

Forecast

The report was made 12 hours and 25 minutes ago, at 17:00 UTC
Forecast valid from 27 at 18 UTC to 28 at 18 UTC
Wind 6 kt from the East
Visibility 10 km or more
Broken clouds at a height of 2500 ft
Temporary
from 27 at 18 UTC to 27 at 21 UTC
rain
Becoming
from 28 at 10 UTC to 28 at 12 UTC
Wind 11 kt from the East/Northeast
The information on this site is subject to a disclaimer
Weather : Europe Africa North America South America Asia Australia-Oceania Others
Satellite images 15-day forecastsClimateMarine weather Cyclones Lightning AirportsFAQ Languages Contact Newsletter About